createdAt,value
2022-08-03T00:00:47.114Z,494.0000
2022-08-03T00:01:49.405Z,497.0000
2022-08-03T00:02:51.777Z,491.0000
2022-08-03T00:03:53.980Z,492.0000
2022-08-03T00:04:54.079Z,492.0000
2022-08-03T00:06:04.551Z,493.0000
2022-08-03T00:06:58.590Z,497.0000
2022-08-03T00:08:00.853Z,500.0000
2022-08-03T00:09:03.062Z,499.0000
2022-08-03T00:10:05.350Z,501.0000
2022-08-03T00:11:07.621Z,499.0000
2022-08-03T00:12:09.993Z,502.0000
2022-08-03T00:13:12.236Z,496.0000
2022-08-03T00:14:12.397Z,494.0000
2022-08-03T00:15:15.068Z,489.0000
2022-08-03T00:16:17.066Z,487.0000
2022-08-03T00:17:19.417Z,489.0000
2022-08-03T00:18:21.795Z,494.0000
2022-08-03T00:19:21.961Z,494.0000
2022-08-03T00:20:24.308Z,499.0000
2022-08-03T00:21:26.591Z,496.0000
2022-08-03T00:22:28.924Z,497.0000
2022-08-03T00:22:43.986Z,496.0000
2022-08-03T00:23:51.751Z,496.0000
2022-08-03T00:24:46.492Z,501.0000
2022-08-03T00:25:48.847Z,491.0000
2022-08-03T00:26:51.197Z,491.0000
2022-08-03T00:27:53.522Z,493.0000
2022-08-03T00:28:53.753Z,496.0000
2022-08-03T00:29:57.643Z,496.0000
2022-08-03T00:30:58.487Z,492.0000
2022-08-03T00:32:00.872Z,494.0000
2022-08-03T00:33:03.237Z,499.0000
2022-08-03T00:34:04.233Z,500.0000
2022-08-03T00:35:09.109Z,495.0000
2022-08-03T00:36:08.204Z,495.0000
2022-08-03T00:37:10.564Z,496.0000
2022-08-03T00:38:10.740Z,494.0000
2022-08-03T00:39:13.111Z,495.0000
2022-08-03T00:40:15.439Z,498.0000
2022-08-03T00:41:17.795Z,497.0000
2022-08-03T00:42:20.149Z,498.0000
2022-08-03T00:43:20.356Z,497.0000
2022-08-03T00:44:22.767Z,495.0000
2022-08-03T00:45:25.141Z,490.0000
2022-08-03T00:46:27.504Z,491.0000
2022-08-03T00:47:29.811Z,495.0000
2022-08-03T00:48:33.617Z,500.0000
2022-08-03T00:49:32.525Z,498.0000
2022-08-03T00:50:34.755Z,490.0000
2022-08-03T00:51:37.093Z,493.0000
2022-08-03T00:52:39.450Z,492.0000
2022-08-03T00:53:39.646Z,495.0000
2022-08-03T00:54:42.029Z,500.0000
2022-08-03T00:55:44.293Z,501.0000
2022-08-03T00:56:59.495Z,509.0000
2022-08-03T00:57:46.860Z,503.0000
2022-08-03T00:58:49.229Z,498.0000
2022-08-03T00:59:51.620Z,505.0000
2022-08-03T01:00:54.068Z,503.0000
2022-08-03T01:01:54.232Z,498.0000
2022-08-03T01:02:56.622Z,497.0000
2022-08-03T01:03:58.924Z,501.0000
2022-08-03T01:05:01.301Z,502.0000
2022-08-03T01:06:01.495Z,500.0000
2022-08-03T01:07:03.881Z,501.0000
2022-08-03T01:08:06.267Z,502.0000
2022-08-03T01:09:08.643Z,499.0000
2022-08-03T01:10:08.889Z,495.0000
2022-08-03T01:11:11.189Z,496.0000
2022-08-03T01:12:13.708Z,493.0000
2022-08-03T01:13:59.221Z,493.0000
2022-08-03T01:14:19.351Z,495.0000
2022-08-03T01:15:20.363Z,498.0000
2022-08-03T01:16:22.647Z,494.0000
2022-08-03T01:17:22.815Z,496.0000
2022-08-03T01:18:25.140Z,488.0000
2022-08-03T01:19:27.470Z,485.0000
2022-08-03T01:20:30.013Z,490.0000
2022-08-03T01:21:29.986Z,493.0000
2022-08-03T01:22:32.317Z,493.0000
2022-08-03T01:23:34.646Z,496.0000
2022-08-03T01:24:36.972Z,492.0000
2022-08-03T01:25:39.322Z,494.0000
2022-08-03T01:26:39.453Z,493.0000
2022-08-03T01:27:41.770Z,497.0000
2022-08-03T01:28:44.076Z,502.0000
2022-08-03T01:29:46.381Z,498.0000
2022-08-03T01:30:48.717Z,497.0000
2022-08-03T01:32:58.001Z,487.0000
2022-08-03T01:32:59.813Z,489.0000
2022-08-03T01:33:53.487Z,514.0000
2022-08-03T01:34:55.812Z,492.0000
2022-08-03T01:35:58.187Z,492.0000
2022-08-03T01:37:00.534Z,493.0000
2022-08-03T01:38:02.916Z,490.0000
2022-08-03T01:39:03.142Z,493.0000
2022-08-03T01:40:05.520Z,488.0000
2022-08-03T01:41:07.955Z,489.0000
2022-08-03T01:42:08.149Z,494.0000
2022-08-03T01:43:10.474Z,498.0000
2022-08-03T01:44:29.499Z,500.0000
2022-08-03T01:45:16.881Z,479.0000
2022-08-03T01:46:17.654Z,491.0000
2022-08-03T01:47:18.793Z,497.0000
2022-08-03T01:49:20.242Z,503.0000
2022-08-03T01:50:22.487Z,499.0000
2022-08-03T01:51:24.803Z,495.0000
2022-08-03T01:52:27.153Z,494.0000
2022-08-03T01:53:29.511Z,490.0000
2022-08-03T01:54:29.661Z,492.0000
2022-08-03T01:55:31.972Z,496.0000
2022-08-03T01:56:34.320Z,500.0000
2022-08-03T01:58:04.574Z,497.0000
2022-08-03T01:58:38.949Z,498.0000
2022-08-03T01:59:41.269Z,505.0000
2022-08-03T02:00:41.514Z,504.0000
2022-08-03T02:02:32.171Z,501.0000
2022-08-03T02:02:46.147Z,499.0000
2022-08-03T02:03:59.684Z,492.0000
2022-08-03T02:04:50.688Z,491.0000
2022-08-03T02:06:06.107Z,484.0000
2022-08-03T02:07:01.601Z,485.0000
2022-08-03T02:07:55.552Z,484.0000
2022-08-03T02:08:57.898Z,486.0000
2022-08-03T02:10:00.273Z,489.0000
2022-08-03T02:11:02.637Z,488.0000
2022-08-03T02:12:02.864Z,485.0000
2022-08-03T02:13:05.154Z,487.0000
2022-08-03T02:14:07.472Z,489.0000
2022-08-03T02:15:09.838Z,488.0000
2022-08-03T02:16:12.202Z,492.0000
2022-08-03T02:17:14.597Z,493.0000
2022-08-03T02:18:14.794Z,489.0000
2022-08-03T02:19:17.170Z,486.0000
2022-08-03T02:20:19.539Z,488.0000
2022-08-03T02:21:56.448Z,493.0000
2022-08-03T02:22:22.138Z,497.0000
2022-08-03T02:23:26.637Z,496.0000
2022-08-03T02:24:26.799Z,499.0000
2022-08-03T02:25:29.100Z,496.0000
2022-08-03T02:26:29.279Z,497.0000
2022-08-03T02:27:31.691Z,495.0000
2022-08-03T02:28:34.011Z,498.0000
2022-08-03T02:29:39.781Z,498.0000
2022-08-03T02:30:36.543Z,498.0000
2022-08-03T02:31:32.454Z,495.0000
2022-08-03T02:32:34.771Z,498.0000
2022-08-03T02:33:37.035Z,499.0000
2022-08-03T02:34:37.223Z,498.0000
2022-08-03T02:35:39.565Z,503.0000
2022-08-03T02:36:41.859Z,511.0000
2022-08-03T02:37:45.014Z,503.0000
2022-08-03T02:38:46.445Z,498.0000
2022-08-03T02:39:48.783Z,497.0000
2022-08-03T02:40:49.013Z,499.0000
2022-08-03T02:41:51.353Z,500.0000
2022-08-03T02:42:53.766Z,493.0000
2022-08-03T02:44:05.646Z,496.0000
2022-08-03T02:44:58.510Z,494.0000
2022-08-03T02:45:58.756Z,493.0000
2022-08-03T02:47:01.098Z,499.0000
2022-08-03T02:48:03.492Z,493.0000
2022-08-03T02:49:41.061Z,491.0000
2022-08-03T02:50:06.063Z,493.0000
2022-08-03T02:51:08.344Z,498.0000
2022-08-03T02:52:13.226Z,497.0000
2022-08-03T02:53:13.044Z,498.0000
2022-08-03T02:54:15.349Z,503.0000
2022-08-03T02:55:17.681Z,502.0000
2022-08-03T02:56:17.813Z,501.0000
2022-08-03T02:57:20.185Z,504.0000
2022-08-03T02:58:22.461Z,500.0000
2022-08-03T02:59:24.825Z,498.0000
2022-08-03T03:00:28.454Z,499.0000
2022-08-03T03:01:27.600Z,498.0000
2022-08-03T03:02:29.900Z,495.0000
2022-08-03T03:03:40.044Z,491.0000
2022-08-03T03:04:33.230Z,490.0000
2022-08-03T03:05:55.240Z,485.0000
2022-08-03T03:06:37.439Z,483.0000
2022-08-03T03:07:51.707Z,488.0000
2022-08-03T03:08:39.994Z,491.0000
2022-08-03T03:09:43.186Z,493.0000
2022-08-03T03:10:44.743Z,493.0000
2022-08-03T03:11:47.115Z,493.0000
2022-08-03T03:12:47.324Z,490.0000
2022-08-03T03:13:49.806Z,492.0000
2022-08-03T03:14:52.149Z,492.0000
2022-08-03T03:15:52.429Z,493.0000
2022-08-03T03:16:57.674Z,496.0000
2022-08-03T03:17:57.285Z,502.0000
2022-08-03T03:18:57.546Z,500.0000
2022-08-03T03:19:59.941Z,499.0000
2022-08-03T03:21:02.346Z,501.0000
2022-08-03T03:22:04.699Z,496.0000
2022-08-03T03:23:04.894Z,496.0000
2022-08-03T03:24:07.277Z,505.0000
2022-08-03T03:25:09.630Z,498.0000
2022-08-03T03:26:12.067Z,499.0000
2022-08-03T03:27:16.682Z,503.0000
2022-08-03T03:28:14.812Z,513.0000
2022-08-03T03:29:17.288Z,503.0000
2022-08-03T03:30:19.700Z,500.0000
2022-08-03T03:31:19.984Z,502.0000
2022-08-03T03:32:22.380Z,498.0000
2022-08-03T03:33:24.743Z,497.0000
2022-08-03T03:34:27.199Z,500.0000
2022-08-03T03:35:27.441Z,500.0000
2022-08-03T03:36:29.858Z,496.0000
2022-08-03T03:37:32.271Z,495.0000
2022-08-03T03:38:34.659Z,495.0000
2022-08-03T03:39:34.990Z,493.0000
2022-08-03T03:40:37.470Z,496.0000
2022-08-03T03:41:39.860Z,493.0000
2022-08-03T03:42:40.161Z,502.0000
2022-08-03T03:43:42.609Z,502.0000
2022-08-03T03:44:45.090Z,500.0000
2022-08-03T03:45:47.568Z,499.0000
2022-08-03T03:46:47.818Z,497.0000
2022-08-03T03:47:50.281Z,496.0000
2022-08-03T03:48:52.759Z,498.0000
2022-08-03T03:49:53.089Z,503.0000
2022-08-03T03:50:55.464Z,501.0000
2022-08-03T03:51:57.849Z,511.0000
2022-08-03T03:53:00.267Z,504.0000
2022-08-03T03:54:02.611Z,498.0000
2022-08-03T03:55:05.006Z,498.0000
2022-08-03T03:56:07.359Z,495.0000
2022-08-03T03:57:07.570Z,498.0000
2022-08-03T03:58:09.921Z,500.0000
2022-08-03T03:59:12.222Z,493.0000
2022-08-03T04:00:14.608Z,502.0000
2022-08-03T04:01:14.812Z,499.0000
2022-08-03T04:02:17.453Z,494.0000
2022-08-03T04:03:19.537Z,498.0000
2022-08-03T04:04:21.914Z,506.0000
2022-08-03T04:05:22.184Z,507.0000
2022-08-03T04:06:24.534Z,507.0000
2022-08-03T04:07:26.891Z,503.0000
2022-08-03T04:08:29.259Z,499.0000
2022-08-03T04:09:30.520Z,496.0000
2022-08-03T04:10:30.743Z,494.0000
2022-08-03T04:11:32.237Z,497.0000
2022-08-03T04:12:32.202Z,499.0000
2022-08-03T04:13:34.514Z,501.0000
2022-08-03T04:14:36.812Z,502.0000
2022-08-03T04:15:39.191Z,504.0000
2022-08-03T04:16:43.770Z,501.0000
2022-08-03T04:17:41.772Z,498.0000
2022-08-03T04:18:44.140Z,497.0000
2022-08-03T04:19:46.473Z,500.0000
2022-08-03T04:20:48.856Z,501.0000
2022-08-03T04:21:51.166Z,502.0000
2022-08-03T04:22:51.407Z,500.0000
2022-08-03T04:23:53.820Z,503.0000
2022-08-03T04:24:56.166Z,501.0000
2022-08-03T04:25:58.500Z,502.0000
2022-08-03T04:27:00.822Z,504.0000
2022-08-03T04:28:08.095Z,507.0000
2022-08-03T04:29:03.449Z,510.0000
2022-08-03T04:30:05.852Z,508.0000
2022-08-03T04:31:08.257Z,508.0000
2022-08-03T04:32:08.485Z,511.0000
2022-08-03T04:33:10.898Z,513.0000
2022-08-03T04:34:13.279Z,515.0000
2022-08-03T04:35:15.605Z,512.0000
2022-08-03T04:36:15.783Z,511.0000
2022-08-03T04:37:18.077Z,512.0000
2022-08-03T04:38:20.434Z,506.0000
2022-08-03T04:39:22.799Z,507.0000
2022-08-03T04:40:25.179Z,508.0000
2022-08-03T04:41:25.464Z,507.0000
2022-08-03T04:42:27.814Z,503.0000
2022-08-03T04:43:30.231Z,499.0000
2022-08-03T04:44:32.653Z,503.0000
2022-08-03T04:45:32.880Z,504.0000
2022-08-03T04:46:35.317Z,504.0000
2022-08-03T04:47:37.694Z,504.0000
2022-08-03T04:48:44.356Z,502.0000
2022-08-03T04:49:42.548Z,514.0000
2022-08-03T04:50:44.909Z,512.0000
2022-08-03T04:51:47.285Z,513.0000
2022-08-03T04:52:47.444Z,512.0000
2022-08-03T04:53:49.792Z,507.0000
2022-08-03T04:54:52.181Z,510.0000
2022-08-03T04:55:54.526Z,511.0000
2022-08-03T04:56:56.977Z,511.0000
2022-08-03T04:57:57.215Z,508.0000
2022-08-03T04:58:59.586Z,508.0000
2022-08-03T05:00:03.632Z,508.0000
2022-08-03T05:01:04.435Z,507.0000
2022-08-03T05:02:04.764Z,511.0000
2022-08-03T05:03:23.692Z,509.0000
2022-08-03T05:04:09.466Z,511.0000
2022-08-03T05:05:11.864Z,510.0000
2022-08-03T05:06:12.116Z,508.0000
2022-08-03T05:07:14.511Z,510.0000
2022-08-03T05:08:16.893Z,509.0000
2022-08-03T05:09:50.658Z,500.0000
2022-08-03T05:10:19.513Z,501.0000
2022-08-03T05:11:21.868Z,501.0000
2022-08-03T05:12:24.298Z,505.0000
2022-08-03T05:13:26.664Z,503.0000
2022-08-03T05:14:29.039Z,509.0000
2022-08-03T05:15:31.365Z,511.0000
2022-08-03T05:16:33.708Z,509.0000
2022-08-03T05:17:36.203Z,509.0000
2022-08-03T05:18:38.439Z,510.0000
2022-08-03T05:19:40.821Z,508.0000
2022-08-03T05:20:41.074Z,510.0000
2022-08-03T05:21:52.317Z,507.0000
2022-08-03T05:22:43.671Z,506.0000
2022-08-03T05:23:45.990Z,505.0000
2022-08-03T05:24:48.304Z,507.0000
2022-08-03T05:25:50.629Z,508.0000
2022-08-03T05:26:52.960Z,507.0000
2022-08-03T05:27:53.208Z,509.0000
2022-08-03T05:28:55.508Z,513.0000
2022-08-03T05:30:27.346Z,513.0000
2022-08-03T05:31:00.204Z,514.0000
2022-08-03T05:32:07.793Z,512.0000
2022-08-03T05:33:02.679Z,514.0000
2022-08-03T05:34:04.904Z,516.0000
2022-08-03T05:35:56.096Z,518.0000
2022-08-03T05:36:09.582Z,523.0000
2022-08-03T05:37:11.920Z,521.0000
2022-08-03T05:38:14.191Z,525.0000
2022-08-03T05:39:16.413Z,526.0000
2022-08-03T05:40:16.557Z,527.0000
2022-08-03T05:41:23.424Z,525.0000
2022-08-03T05:42:21.105Z,529.0000
2022-08-03T05:43:23.407Z,532.0000
2022-08-03T05:44:25.666Z,535.0000
2022-08-03T05:45:28.527Z,537.0000
2022-08-03T05:46:30.175Z,536.0000
2022-08-03T05:47:32.468Z,536.0000
2022-08-03T05:48:32.643Z,539.0000
2022-08-03T05:49:35.010Z,538.0000
2022-08-03T05:50:42.457Z,536.0000
2022-08-03T05:51:39.557Z,538.0000
2022-08-03T05:52:39.736Z,538.0000
2022-08-03T05:53:42.052Z,538.0000
2022-08-03T05:54:55.572Z,536.0000
2022-08-03T05:55:44.545Z,536.0000
2022-08-03T05:56:46.860Z,535.0000
2022-08-03T05:57:49.292Z,535.0000
2022-08-03T05:58:51.459Z,536.0000
2022-08-03T05:59:58.297Z,537.0000
2022-08-03T06:00:53.767Z,534.0000
2022-08-03T06:01:56.094Z,534.0000
2022-08-03T06:02:58.375Z,533.0000
2022-08-03T06:04:00.675Z,536.0000
2022-08-03T06:05:02.939Z,538.0000
2022-08-03T06:06:05.153Z,538.0000
2022-08-03T06:07:05.285Z,536.0000
2022-08-03T06:08:07.571Z,534.0000
2022-08-03T06:09:09.885Z,532.0000
2022-08-03T06:10:35.634Z,531.0000
2022-08-03T06:11:14.350Z,532.0000
2022-08-03T06:12:17.038Z,531.0000
2022-08-03T06:13:18.915Z,530.0000
2022-08-03T06:14:21.234Z,529.0000
2022-08-03T06:15:21.285Z,531.0000
2022-08-03T06:16:23.530Z,531.0000
2022-08-03T06:17:25.756Z,533.0000
2022-08-03T06:18:27.986Z,534.0000
2022-08-03T06:19:30.315Z,534.0000
2022-08-03T06:20:32.587Z,531.0000
2022-08-03T06:21:34.874Z,528.0000
2022-08-03T06:22:37.180Z,527.0000
2022-08-03T06:23:54.240Z,525.0000
2022-08-03T06:24:39.639Z,526.0000
2022-08-03T06:25:41.923Z,525.0000
2022-08-03T06:26:44.233Z,528.0000
2022-08-03T06:27:46.540Z,533.0000
2022-08-03T06:28:53.165Z,533.0000
2022-08-03T06:29:51.140Z,535.0000
2022-08-03T06:30:51.223Z,536.0000
2022-08-03T06:31:53.529Z,533.0000
2022-08-03T06:32:55.780Z,529.0000
2022-08-03T06:34:34.182Z,527.0000
2022-08-03T06:34:58.328Z,524.0000
2022-08-03T06:36:00.542Z,525.0000
2022-08-03T06:37:02.322Z,527.0000
2022-08-03T06:38:02.966Z,527.0000
2022-08-03T06:39:05.252Z,527.0000
2022-08-03T06:40:07.589Z,525.0000
2022-08-03T06:41:09.886Z,525.0000
2022-08-03T06:42:12.189Z,525.0000
2022-08-03T06:43:12.801Z,525.0000
2022-08-03T06:44:14.606Z,528.0000
2022-08-03T06:45:16.917Z,527.0000
2022-08-03T06:46:19.179Z,530.0000
2022-08-03T06:47:21.467Z,533.0000
2022-08-03T06:48:23.768Z,532.0000
2022-08-03T06:49:26.108Z,534.0000
2022-08-03T06:50:26.440Z,530.0000
2022-08-03T06:52:05.717Z,529.0000
2022-08-03T06:52:44.885Z,532.0000
2022-08-03T06:53:32.939Z,534.0000
2022-08-03T06:54:35.709Z,535.0000
2022-08-03T06:55:42.267Z,536.0000
2022-08-03T06:56:39.816Z,539.0000
2022-08-03T06:57:42.052Z,537.0000
2022-08-03T06:58:42.189Z,536.0000
2022-08-03T07:00:07.822Z,533.0000
2022-08-03T07:00:46.857Z,533.0000
2022-08-03T07:01:49.096Z,532.0000
2022-08-03T07:02:56.112Z,531.0000
2022-08-03T07:03:53.593Z,530.0000
2022-08-03T07:04:55.880Z,531.0000
2022-08-03T07:05:56.085Z,530.0000
2022-08-03T07:06:58.348Z,530.0000
2022-08-03T07:08:00.653Z,532.0000
2022-08-03T07:09:02.945Z,530.0000
2022-08-03T07:10:05.235Z,532.0000
2022-08-03T07:11:07.565Z,537.0000
2022-08-03T07:13:05.750Z,525.0000
2022-08-03T07:14:07.915Z,521.0000
2022-08-03T07:15:20.167Z,522.0000
2022-08-03T07:16:12.415Z,522.0000
2022-08-03T07:17:12.487Z,522.0000
2022-08-03T07:18:14.751Z,525.0000
2022-08-03T07:19:17.035Z,523.0000
2022-08-03T07:20:19.322Z,524.0000
2022-08-03T07:21:21.612Z,520.0000
2022-08-03T07:22:23.859Z,517.0000
2022-08-03T07:23:26.129Z,519.0000
2022-08-03T07:24:26.263Z,520.0000
2022-08-03T07:25:28.537Z,519.0000
2022-08-03T07:26:30.796Z,520.0000
2022-08-03T07:27:33.044Z,521.0000
2022-08-03T07:28:35.345Z,519.0000
2022-08-03T07:29:37.636Z,521.0000
2022-08-03T07:30:39.888Z,519.0000
2022-08-03T07:31:42.130Z,516.0000
2022-08-03T07:32:50.682Z,515.0000
2022-08-03T07:33:44.421Z,519.0000
2022-08-03T07:34:46.613Z,522.0000
2022-08-03T07:35:48.836Z,523.0000
2022-08-03T07:36:51.084Z,524.0000
2022-08-03T07:37:54.621Z,529.0000
2022-08-03T07:38:55.451Z,531.0000
2022-08-03T07:39:57.681Z,533.0000
2022-08-03T07:40:59.864Z,535.0000
2022-08-03T07:42:02.152Z,535.0000
2022-08-03T07:43:04.361Z,531.0000
2022-08-03T07:44:06.614Z,531.0000
2022-08-03T07:45:08.845Z,531.0000
2022-08-03T07:46:08.939Z,529.0000
2022-08-03T07:47:16.558Z,527.0000
2022-08-03T07:48:12.591Z,525.0000
2022-08-03T07:49:13.472Z,526.0000
2022-08-03T07:50:15.597Z,523.0000
2022-08-03T07:51:17.822Z,521.0000
2022-08-03T07:52:20.135Z,522.0000
2022-08-03T07:53:21.164Z,522.0000
2022-08-03T07:54:22.396Z,519.0000
2022-08-03T07:55:24.636Z,520.0000
2022-08-03T07:56:26.871Z,521.0000
2022-08-03T07:57:29.110Z,522.0000
2022-08-03T07:58:31.338Z,522.0000
2022-08-03T07:59:56.495Z,524.0000
2022-08-03T08:00:33.670Z,524.0000
2022-08-03T08:01:36.069Z,523.0000
2022-08-03T08:02:38.172Z,521.0000
2022-08-03T08:03:49.861Z,521.0000
2022-08-03T08:04:42.634Z,522.0000
2022-08-03T08:05:44.818Z,522.0000
2022-08-03T08:06:47.067Z,519.0000
2022-08-03T08:07:51.127Z,520.0000
2022-08-03T08:08:51.557Z,519.0000
2022-08-03T08:09:51.666Z,520.0000
2022-08-03T08:10:58.702Z,521.0000
2022-08-03T08:11:56.177Z,521.0000
2022-08-03T08:12:58.492Z,522.0000
2022-08-03T08:14:00.665Z,521.0000
2022-08-03T08:15:02.914Z,521.0000
2022-08-03T08:16:05.164Z,519.0000
2022-08-03T08:17:07.594Z,518.0000
2022-08-03T08:18:09.679Z,520.0000
2022-08-03T08:19:12.770Z,521.0000
2022-08-03T08:20:14.067Z,524.0000
2022-08-03T08:21:16.307Z,530.0000
2022-08-03T08:22:18.892Z,531.0000
2022-08-03T08:23:42.242Z,532.0000
2022-08-03T08:24:23.069Z,529.0000
2022-08-03T08:25:25.354Z,530.0000
2022-08-03T08:26:25.460Z,529.0000
2022-08-03T08:27:27.729Z,530.0000
2022-08-03T08:28:33.462Z,532.0000
2022-08-03T08:29:32.257Z,532.0000
2022-08-03T08:30:34.507Z,529.0000
2022-08-03T08:31:34.641Z,529.0000
2022-08-03T08:32:36.972Z,524.0000
2022-08-03T08:34:02.499Z,521.0000
2022-08-03T08:34:39.375Z,518.0000
2022-08-03T08:35:41.675Z,518.0000
2022-08-03T08:36:43.965Z,515.0000
2022-08-03T08:37:51.160Z,513.0000
2022-08-03T08:38:48.574Z,512.0000
2022-08-03T08:39:50.878Z,510.0000
2022-08-03T08:40:51.028Z,509.0000
2022-08-03T08:41:53.490Z,506.0000
2022-08-03T08:42:58.802Z,505.0000
2022-08-03T08:43:59.973Z,503.0000
2022-08-03T08:45:00.033Z,501.0000
2022-08-03T08:46:02.329Z,501.0000
2022-08-03T08:47:04.635Z,502.0000
2022-08-03T08:48:08.417Z,504.0000
2022-08-03T08:49:07.134Z,503.0000
2022-08-03T08:50:27.124Z,502.0000
2022-08-03T08:51:11.676Z,501.0000
2022-08-03T08:52:29.733Z,499.0000
2022-08-03T08:53:18.321Z,496.0000
2022-08-03T08:54:18.583Z,494.0000
2022-08-03T08:55:20.841Z,495.0000
2022-08-03T08:56:20.980Z,494.0000
2022-08-03T08:57:41.981Z,497.0000
2022-08-03T08:58:25.581Z,495.0000
2022-08-03T08:59:27.886Z,492.0000
2022-08-03T09:00:30.130Z,491.0000
2022-08-03T09:01:32.470Z,489.0000
2022-08-03T09:02:34.707Z,489.0000
2022-08-03T09:03:34.849Z,489.0000
2022-08-03T09:04:37.170Z,490.0000
2022-08-03T09:05:55.406Z,489.0000
2022-08-03T09:06:50.214Z,489.0000
2022-08-03T09:07:43.993Z,490.0000
2022-08-03T09:08:46.256Z,492.0000
2022-08-03T09:10:10.010Z,490.0000
2022-08-03T09:10:48.633Z,490.0000
2022-08-03T09:11:55.695Z,490.0000
2022-08-03T09:12:53.156Z,490.0000
2022-08-03T09:13:55.413Z,486.0000
2022-08-03T09:15:16.032Z,483.0000
2022-08-03T09:16:01.051Z,482.0000
2022-08-03T09:16:59.980Z,483.0000
2022-08-03T09:18:02.206Z,482.0000
2022-08-03T09:19:04.494Z,481.0000
2022-08-03T09:20:07.027Z,482.0000
2022-08-03T09:21:29.607Z,482.0000
2022-08-03T09:22:11.270Z,483.0000
2022-08-03T09:23:44.800Z,485.0000
2022-08-03T09:24:31.196Z,486.0000
2022-08-03T09:25:24.482Z,487.0000
2022-08-03T09:26:18.089Z,485.0000
2022-08-03T09:27:20.389Z,483.0000
2022-08-03T09:28:59.704Z,480.0000
2022-08-03T09:29:24.901Z,481.0000
2022-08-03T09:30:34.697Z,482.0000
2022-08-03T09:31:29.348Z,483.0000
2022-08-03T09:32:32.893Z,482.0000
2022-08-03T09:33:35.946Z,484.0000
2022-08-03T09:34:33.951Z,485.0000
2022-08-03T09:36:38.472Z,483.0000
2022-08-03T09:38:13.549Z,480.0000
2022-08-03T09:38:42.957Z,478.0000
2022-08-03T09:39:45.213Z,480.0000
2022-08-03T09:40:47.505Z,481.0000
2022-08-03T09:41:49.729Z,481.0000
2022-08-03T09:42:51.975Z,484.0000
2022-08-03T09:43:52.081Z,486.0000
2022-08-03T09:44:54.340Z,484.0000
2022-08-03T09:45:56.603Z,479.0000
2022-08-03T09:46:58.779Z,478.0000
2022-08-03T09:48:01.004Z,477.0000
2022-08-03T09:49:03.294Z,474.0000
2022-08-03T09:50:03.345Z,474.0000
2022-08-03T09:51:14.111Z,471.0000
2022-08-03T09:52:31.494Z,473.0000
2022-08-03T09:53:08.031Z,478.0000
2022-08-03T09:54:17.626Z,479.0000
2022-08-03T09:56:32.513Z,481.0000
2022-08-03T09:56:36.318Z,484.0000
2022-08-03T09:57:14.732Z,482.0000
2022-08-03T09:58:16.977Z,483.0000
2022-08-03T09:59:19.201Z,483.0000
2022-08-03T10:00:21.814Z,481.0000
2022-08-03T10:01:25.379Z,483.0000
2022-08-03T10:02:25.924Z,478.0000
2022-08-03T10:03:28.165Z,479.0000
2022-08-03T10:04:30.409Z,477.0000
2022-08-03T10:05:32.608Z,476.0000
2022-08-03T10:06:34.861Z,475.0000
2022-08-03T10:07:34.944Z,473.0000
2022-08-03T10:08:37.190Z,473.0000
2022-08-03T10:09:39.426Z,472.0000
2022-08-03T10:10:41.669Z,471.0000
2022-08-03T10:11:43.945Z,468.0000
2022-08-03T10:12:46.187Z,467.0000
2022-08-03T10:13:48.474Z,470.0000
2022-08-03T10:14:50.774Z,471.0000
2022-08-03T10:16:23.486Z,472.0000
2022-08-03T10:16:53.191Z,472.0000
2022-08-03T10:17:55.403Z,474.0000
2022-08-03T10:18:57.704Z,474.0000
2022-08-03T10:20:00.002Z,475.0000
2022-08-03T10:21:02.297Z,476.0000
2022-08-03T10:22:04.637Z,476.0000
2022-08-03T10:23:06.896Z,477.0000
2022-08-03T10:24:07.019Z,477.0000
2022-08-03T10:25:09.323Z,478.0000
2022-08-03T10:26:11.617Z,480.0000
2022-08-03T10:27:13.908Z,481.0000
2022-08-03T10:28:16.124Z,482.0000
2022-08-03T10:29:18.410Z,483.0000
2022-08-03T10:30:20.722Z,484.0000
2022-08-03T10:31:20.878Z,485.0000
2022-08-03T10:32:23.161Z,483.0000
2022-08-03T10:33:49.567Z,483.0000
2022-08-03T10:34:25.613Z,484.0000
2022-08-03T10:35:27.916Z,484.0000
2022-08-03T10:36:30.223Z,487.0000
2022-08-03T10:37:32.549Z,489.0000
2022-08-03T10:38:34.848Z,488.0000
2022-08-03T10:39:37.138Z,487.0000
2022-08-03T10:40:48.500Z,486.0000
2022-08-03T10:41:39.606Z,488.0000
2022-08-03T10:42:41.880Z,487.0000
2022-08-03T10:43:44.163Z,487.0000
2022-08-03T10:44:46.483Z,488.0000
2022-08-03T10:45:48.805Z,487.0000
2022-08-03T10:46:51.071Z,490.0000
2022-08-03T10:47:51.196Z,489.0000
2022-08-03T10:48:53.480Z,490.0000
2022-08-03T10:49:55.753Z,491.0000
2022-08-03T10:50:57.955Z,490.0000
2022-08-03T10:52:00.252Z,487.0000
2022-08-03T10:53:03.914Z,485.0000
2022-08-03T10:54:04.808Z,483.0000
2022-08-03T10:55:10.057Z,483.0000
2022-08-03T10:56:07.172Z,482.0000
2022-08-03T10:57:14.394Z,481.0000
2022-08-03T10:58:11.663Z,481.0000
2022-08-03T10:59:14.690Z,481.0000
2022-08-03T11:00:16.163Z,482.0000
2022-08-03T11:01:18.538Z,484.0000
2022-08-03T11:02:20.681Z,480.0000
2022-08-03T11:03:22.945Z,479.0000
2022-08-03T11:04:25.184Z,477.0000
2022-08-03T11:05:25.293Z,480.0000
2022-08-03T11:06:27.496Z,479.0000
2022-08-03T11:07:29.751Z,481.0000
2022-08-03T11:08:32.046Z,483.0000
2022-08-03T11:09:34.268Z,485.0000
2022-08-03T11:10:36.537Z,484.0000
2022-08-03T11:11:38.827Z,482.0000
2022-08-03T11:12:41.160Z,484.0000
2022-08-03T11:14:41.509Z,479.0000
2022-08-03T11:15:43.635Z,476.0000
2022-08-03T11:16:45.880Z,478.0000
2022-08-03T11:17:55.926Z,482.0000
2022-08-03T11:18:50.357Z,486.0000
2022-08-03T11:19:57.794Z,487.0000
2022-08-03T11:20:54.753Z,492.0000
2022-08-03T11:21:57.021Z,493.0000
2022-08-03T11:22:57.089Z,491.0000
2022-08-03T11:24:05.127Z,492.0000
2022-08-03T11:25:01.588Z,491.0000
2022-08-03T11:26:03.818Z,493.0000
2022-08-03T11:27:06.058Z,493.0000
2022-08-03T11:28:08.337Z,492.0000
2022-08-03T11:29:10.616Z,495.0000
2022-08-03T11:30:12.892Z,496.0000
2022-08-03T11:31:32.772Z,494.0000
2022-08-03T11:32:19.561Z,493.0000
2022-08-03T11:33:17.454Z,491.0000
2022-08-03T11:34:19.694Z,494.0000
2022-08-03T11:35:21.965Z,492.0000
2022-08-03T11:36:32.071Z,491.0000
2022-08-03T11:37:32.892Z,490.0000
2022-08-03T11:38:28.569Z,490.0000
2022-08-03T11:39:30.777Z,489.0000
2022-08-03T11:40:33.041Z,491.0000
2022-08-03T11:41:45.007Z,489.0000
2022-08-03T11:42:35.380Z,488.0000
2022-08-03T11:43:37.623Z,487.0000
2022-08-03T11:44:39.830Z,488.0000
2022-08-03T11:45:42.126Z,490.0000
2022-08-03T11:46:44.288Z,490.0000
2022-08-03T11:47:50.782Z,489.0000
2022-08-03T11:48:48.736Z,493.0000
2022-08-03T11:49:50.989Z,493.0000
2022-08-03T11:50:53.282Z,494.0000
2022-08-03T11:51:55.532Z,494.0000
2022-08-03T11:52:55.655Z,495.0000
2022-08-03T11:53:57.950Z,492.0000
2022-08-03T11:55:00.261Z,493.0000
2022-08-03T11:56:02.587Z,494.0000
2022-08-03T11:57:04.872Z,494.0000
2022-08-03T11:59:15.241Z,496.0000
2022-08-03T11:59:20.382Z,500.0000
2022-08-03T12:00:09.610Z,499.0000
2022-08-03T12:01:11.928Z,500.0000
2022-08-03T12:02:14.178Z,502.0000
2022-08-03T12:03:16.489Z,502.0000
2022-08-03T12:04:18.633Z,503.0000
2022-08-03T12:05:20.912Z,500.0000
2022-08-03T12:06:23.230Z,500.0000
2022-08-03T12:08:05.001Z,504.0000
2022-08-03T12:08:25.612Z,501.0000
2022-08-03T12:09:27.895Z,503.0000
2022-08-03T12:10:30.173Z,503.0000